sensor_id;sensor_type;location;lat;lon;timestamp;P1;durP1;ratioP1;P2;durP2;ratioP2
56893;SDS011;43392;50.078;13.704;2023-08-21T00:00:17;12.90;;;9.23;;
56893;SDS011;43392;50.078;13.704;2023-08-21T00:02:44;13.82;;;9.48;;
56893;SDS011;43392;50.078;13.704;2023-08-21T00:05:11;16.73;;;9.85;;
56893;SDS011;43392;50.078;13.704;2023-08-21T00:07:37;15.13;;;9.48;;
56893;SDS011;43392;50.078;13.704;2023-08-21T00:10:04;13.40;;;9.05;;
56893;SDS011;43392;50.078;13.704;2023-08-21T00:12:31;11.75;;;9.30;;
56893;SDS011;43392;50.078;13.704;2023-08-21T00:14:58;13.43;;;9.43;;
56893;SDS011;43392;50.078;13.704;2023-08-21T00:17:26;12.82;;;8.75;;
56893;SDS011;43392;50.078;13.704;2023-08-21T00:19:53;14.68;;;9.07;;
56893;SDS011;43392;50.078;13.704;2023-08-21T00:22:19;13.98;;;9.73;;
56893;SDS011;43392;50.078;13.704;2023-08-21T00:24:46;15.80;;;9.13;;
56893;SDS011;43392;50.078;13.704;2023-08-21T00:27:12;12.18;;;9.30;;
56893;SDS011;43392;50.078;13.704;2023-08-21T00:29:39;13.25;;;9.35;;
56893;SDS011;43392;50.078;13.704;2023-08-21T00:32:05;13.27;;;9.60;;
56893;SDS011;43392;50.078;13.704;2023-08-21T00:34:33;15.05;;;9.13;;
56893;SDS011;43392;50.078;13.704;2023-08-21T00:37:00;14.00;;;9.32;;
56893;SDS011;43392;50.078;13.704;2023-08-21T00:39:26;14.30;;;9.35;;
56893;SDS011;43392;50.078;13.704;2023-08-21T00:41:53;14.68;;;8.82;;
56893;SDS011;43392;50.078;13.704;2023-08-21T00:44:20;16.02;;;8.55;;
56893;SDS011;43392;50.078;13.704;2023-08-21T00:46:46;14.63;;;9.38;;
56893;SDS011;43392;50.078;13.704;2023-08-21T00:49:13;14.15;;;9.70;;
56893;SDS011;43392;50.078;13.704;2023-08-21T00:51:41;15.98;;;10.73;;
56893;SDS011;43392;50.078;13.704;2023-08-21T00:54:08;16.67;;;11.75;;
56893;SDS011;43392;50.078;13.704;2023-08-21T00:56:35;17.17;;;12.25;;
56893;SDS011;43392;50.078;13.704;2023-08-21T00:59:01;17.23;;;12.13;;
56893;SDS011;43392;50.078;13.704;2023-08-21T01:01:28;17.00;;;11.30;;
56893;SDS011;43392;50.078;13.704;2023-08-21T01:03:55;14.80;;;10.43;;
56893;SDS011;43392;50.078;13.704;2023-08-21T01:06:22;17.10;;;12.27;;
56893;SDS011;43392;50.078;13.704;2023-08-21T01:08:53;14.52;;;11.70;;
56893;SDS011;43392;50.078;13.704;2023-08-21T01:11:25;16.38;;;12.13;;
56893;SDS011;43392;50.078;13.704;2023-08-21T01:13:57;18.10;;;12.00;;
56893;SDS011;43392;50.078;13.704;2023-08-21T01:16:32;17.38;;;12.45;;
56893;SDS011;43392;50.078;13.704;2023-08-21T01:19:00;14.98;;;11.93;;
56893;SDS011;43392;50.078;13.704;2023-08-21T01:21:29;15.85;;;11.65;;
56893;SDS011;43392;50.078;13.704;2023-08-21T01:23:57;15.85;;;11.18;;
56893;SDS011;43392;50.078;13.704;2023-08-21T01:26:24;16.70;;;11.50;;
56893;SDS011;43392;50.078;13.704;2023-08-21T01:28:51;18.27;;;11.13;;
56893;SDS011;43392;50.078;13.704;2023-08-21T01:31:18;13.65;;;10.85;;
56893;SDS011;43392;50.078;13.704;2023-08-21T01:33:51;20.00;;;12.27;;
56893;SDS011;43392;50.078;13.704;2023-08-21T01:36:21;14.70;;;10.50;;
56893;SDS011;43392;50.078;13.704;2023-08-21T01:38:49;15.80;;;11.52;;
56893;SDS011;43392;50.078;13.704;2023-08-21T01:41:18;14.88;;;10.93;;
56893;SDS011;43392;50.078;13.704;2023-08-21T01:43:44;13.32;;;10.13;;
56893;SDS011;43392;50.078;13.704;2023-08-21T01:46:11;17.00;;;11.18;;
56893;SDS011;43392;50.078;13.704;2023-08-21T01:48:38;15.35;;;10.85;;
56893;SDS011;43392;50.078;13.704;2023-08-21T01:51:04;13.32;;;10.02;;
56893;SDS011;43392;50.078;13.704;2023-08-21T01:53:31;14.80;;;10.68;;
56893;SDS011;43392;50.078;13.704;2023-08-21T01:55:58;13.85;;;10.35;;
56893;SDS011;43392;50.078;13.704;2023-08-21T01:58:26;14.98;;;10.20;;
56893;SDS011;43392;50.078;13.704;2023-08-21T02:00:52;17.67;;;10.13;;
56893;SDS011;43392;50.078;13.704;2023-08-21T02:03:19;17.55;;;9.68;;
56893;SDS011;43392;50.078;13.704;2023-08-21T02:05:46;18.95;;;9.98;;
56893;SDS011;43392;50.078;13.704;2023-08-21T02:08:13;14.52;;;10.32;;
56893;SDS011;43392;50.078;13.704;2023-08-21T02:10:46;15.15;;;10.05;;
56893;SDS011;43392;50.078;13.704;2023-08-21T02:13:14;13.65;;;10.40;;
56893;SDS011;43392;50.078;13.704;2023-08-21T02:15:42;14.32;;;10.32;;
56893;SDS011;43392;50.078;13.704;2023-08-21T02:18:09;14.48;;;10.27;;
56893;SDS011;43392;50.078;13.704;2023-08-21T02:20:35;15.82;;;10.68;;
56893;SDS011;43392;50.078;13.704;2023-08-21T02:23:02;15.77;;;10.52;;
56893;SDS011;43392;50.078;13.704;2023-08-21T02:25:29;13.45;;;10.95;;
56893;SDS011;43392;50.078;13.704;2023-08-21T02:27:56;12.85;;;9.65;;
56893;SDS011;43392;50.078;13.704;2023-08-21T02:30:22;15.50;;;9.57;;
56893;SDS011;43392;50.078;13.704;2023-08-21T02:32:51;14.00;;;9.70;;
56893;SDS011;43392;50.078;13.704;2023-08-21T02:35:18;13.02;;;9.73;;
56893;SDS011;43392;50.078;13.704;2023-08-21T02:37:45;13.18;;;9.43;;
56893;SDS011;43392;50.078;13.704;2023-08-21T02:40:12;13.50;;;10.55;;
56893;SDS011;43392;50.078;13.704;2023-08-21T02:42:38;18.20;;;9.98;;
56893;SDS011;43392;50.078;13.704;2023-08-21T02:45:05;15.65;;;10.65;;
56893;SDS011;43392;50.078;13.704;2023-08-21T02:47:34;14.57;;;10.25;;
56893;SDS011;43392;50.078;13.704;2023-08-21T02:50:04;15.00;;;10.90;;
56893;SDS011;43392;50.078;13.704;2023-08-21T02:52:32;13.80;;;10.90;;
56893;SDS011;43392;50.078;13.704;2023-08-21T02:55:00;15.15;;;10.50;;
56893;SDS011;43392;50.078;13.704;2023-08-21T02:57:26;16.08;;;11.73;;
56893;SDS011;43392;50.078;13.704;2023-08-21T02:59:53;15.07;;;11.52;;
56893;SDS011;43392;50.078;13.704;2023-08-21T03:02:20;15.73;;;11.07;;
56893;SDS011;43392;50.078;13.704;2023-08-21T03:04:47;16.90;;;10.43;;
56893;SDS011;43392;50.078;13.704;2023-08-21T03:07:15;17.13;;;12.05;;
56893;SDS011;43392;50.078;13.704;2023-08-21T03:09:44;14.95;;;10.18;;
56893;SDS011;43392;50.078;13.704;2023-08-21T03:12:11;16.45;;;11.90;;
56893;SDS011;43392;50.078;13.704;2023-08-21T03:14:38;14.77;;;11.10;;
56893;SDS011;43392;50.078;13.704;2023-08-21T03:17:04;17.35;;;11.80;;
56893;SDS011;43392;50.078;13.704;2023-08-21T03:19:31;16.60;;;11.88;;
56893;SDS011;43392;50.078;13.704;2023-08-21T03:21:58;15.32;;;11.80;;
56893;SDS011;43392;50.078;13.704;2023-08-21T03:24:25;15.98;;;11.60;;
56893;SDS011;43392;50.078;13.704;2023-08-21T03:26:52;18.73;;;11.80;;
56893;SDS011;43392;50.078;13.704;2023-08-21T03:29:19;16.85;;;11.45;;
56893;SDS011;43392;50.078;13.704;2023-08-21T03:31:46;17.23;;;11.50;;
56893;SDS011;43392;50.078;13.704;2023-08-21T03:34:13;14.65;;;11.23;;
56893;SDS011;43392;50.078;13.704;2023-08-21T03:36:39;16.50;;;11.60;;
56893;SDS011;43392;50.078;13.704;2023-08-21T03:39:06;17.55;;;11.93;;
56893;SDS011;43392;50.078;13.704;2023-08-21T03:41:34;18.52;;;11.50;;
56893;SDS011;43392;50.078;13.704;2023-08-21T03:44:00;16.17;;;12.05;;
56893;SDS011;43392;50.078;13.704;2023-08-21T03:46:27;19.90;;;12.10;;
56893;SDS011;43392;50.078;13.704;2023-08-21T03:48:53;19.13;;;12.25;;
56893;SDS011;43392;50.078;13.704;2023-08-21T03:51:20;19.10;;;12.02;;
56893;SDS011;43392;50.078;13.704;2023-08-21T03:53:47;19.23;;;11.98;;
56893;SDS011;43392;50.078;13.704;2023-08-21T03:56:13;18.50;;;12.93;;
56893;SDS011;43392;50.078;13.704;2023-08-21T03:58:41;19.58;;;12.63;;
56893;SDS011;43392;50.078;13.704;2023-08-21T04:01:08;20.55;;;12.00;;
56893;SDS011;43392;50.078;13.704;2023-08-21T04:03:35;15.68;;;11.75;;
56893;SDS011;43392;50.078;13.704;2023-08-21T04:06:02;16.40;;;12.98;;
56893;SDS011;43392;50.078;13.704;2023-08-21T04:08:28;17.77;;;12.10;;
56893;SDS011;43392;50.078;13.704;2023-08-21T04:10:55;15.57;;;11.82;;
56893;SDS011;43392;50.078;13.704;2023-08-21T04:13:24;17.60;;;11.90;;
56893;SDS011;43392;50.078;13.704;2023-08-21T04:15:52;17.85;;;11.98;;
56893;SDS011;43392;50.078;13.704;2023-08-21T04:18:21;17.45;;;12.10;;
56893;SDS011;43392;50.078;13.704;2023-08-21T04:20:47;20.60;;;12.45;;
56893;SDS011;43392;50.078;13.704;2023-08-21T04:23:14;16.40;;;11.43;;
56893;SDS011;43392;50.078;13.704;2023-08-21T04:25:41;15.70;;;11.52;;
56893;SDS011;43392;50.078;13.704;2023-08-21T04:28:08;16.40;;;11.57;;
56893;SDS011;43392;50.078;13.704;2023-08-21T04:30:34;16.00;;;10.68;;
56893;SDS011;43392;50.078;13.704;2023-08-21T04:33:02;17.83;;;13.18;;
56893;SDS011;43392;50.078;13.704;2023-08-21T04:35:35;17.58;;;11.60;;
56893;SDS011;43392;50.078;13.704;2023-08-21T04:38:02;18.23;;;11.60;;
56893;SDS011;43392;50.078;13.704;2023-08-21T04:40:29;15.65;;;11.70;;
56893;SDS011;43392;50.078;13.704;2023-08-21T04:42:56;19.10;;;11.27;;
56893;SDS011;43392;50.078;13.704;2023-08-21T04:45:22;20.08;;;12.18;;
56893;SDS011;43392;50.078;13.704;2023-08-21T04:47:49;18.10;;;11.50;;
56893;SDS011;43392;50.078;13.704;2023-08-21T04:50:17;17.70;;;11.77;;
56893;SDS011;43392;50.078;13.704;2023-08-21T04:52:44;17.40;;;12.43;;
56893;SDS011;43392;50.078;13.704;2023-08-21T04:55:10;17.10;;;12.93;;
56893;SDS011;43392;50.078;13.704;2023-08-21T04:57:37;14.88;;;12.13;;
56893;SDS011;43392;50.078;13.704;2023-08-21T05:00:04;16.92;;;12.68;;
56893;SDS011;43392;50.078;13.704;2023-08-21T05:02:31;18.17;;;12.82;;
56893;SDS011;43392;50.078;13.704;2023-08-21T05:04:58;16.98;;;11.60;;
56893;SDS011;43392;50.078;13.704;2023-08-21T05:07:26;22.40;;;12.70;;
56893;SDS011;43392;50.078;13.704;2023-08-21T05:09:53;16.90;;;13.35;;
56893;SDS011;43392;50.078;13.704;2023-08-21T05:12:19;18.45;;;12.50;;
56893;SDS011;43392;50.078;13.704;2023-08-21T05:14:46;16.63;;;12.95;;
56893;SDS011;43392;50.078;13.704;2023-08-21T05:17:13;18.55;;;13.02;;
56893;SDS011;43392;50.078;13.704;2023-08-21T05:19:39;16.48;;;13.18;;
56893;SDS011;43392;50.078;13.704;2023-08-21T05:22:06;18.38;;;12.73;;
56893;SDS011;43392;50.078;13.704;2023-08-21T05:24:34;17.30;;;12.52;;
56893;SDS011;43392;50.078;13.704;2023-08-21T05:27:01;18.02;;;13.02;;
56893;SDS011;43392;50.078;13.704;2023-08-21T05:29:29;21.40;;;12.50;;
56893;SDS011;43392;50.078;13.704;2023-08-21T05:31:56;18.30;;;12.30;;
56893;SDS011;43392;50.078;13.704;2023-08-21T05:34:22;16.65;;;12.75;;
56893;SDS011;43392;50.078;13.704;2023-08-21T05:36:50;17.08;;;12.50;;
56893;SDS011;43392;50.078;13.704;2023-08-21T05:39:19;18.08;;;12.63;;
56893;SDS011;43392;50.078;13.704;2023-08-21T05:41:47;16.33;;;13.38;;
56893;SDS011;43392;50.078;13.704;2023-08-21T05:44:14;20.85;;;14.13;;
56893;SDS011;43392;50.078;13.704;2023-08-21T05:46:40;18.92;;;15.10;;
56893;SDS011;43392;50.078;13.704;2023-08-21T05:49:07;16.13;;;13.02;;
56893;SDS011;43392;50.078;13.704;2023-08-21T05:51:33;17.83;;;13.60;;
56893;SDS011;43392;50.078;13.704;2023-08-21T05:54:00;21.75;;;13.95;;
56893;SDS011;43392;50.078;13.704;2023-08-21T05:56:27;16.88;;;13.57;;
56893;SDS011;43392;50.078;13.704;2023-08-21T05:58:55;16.15;;;13.02;;
56893;SDS011;43392;50.078;13.704;2023-08-21T06:01:21;16.48;;;13.18;;
56893;SDS011;43392;50.078;13.704;2023-08-21T06:03:48;22.92;;;12.63;;
56893;SDS011;43392;50.078;13.704;2023-08-21T06:06:15;15.45;;;11.85;;
56893;SDS011;43392;50.078;13.704;2023-08-21T06:08:41;19.15;;;12.20;;
56893;SDS011;43392;50.078;13.704;2023-08-21T06:11:08;15.93;;;12.45;;
56893;SDS011;43392;50.078;13.704;2023-08-21T06:13:35;16.92;;;12.98;;
56893;SDS011;43392;50.078;13.704;2023-08-21T06:16:03;16.67;;;13.25;;
56893;SDS011;43392;50.078;13.704;2023-08-21T06:18:30;18.52;;;13.32;;
56893;SDS011;43392;50.078;13.704;2023-08-21T06:20:56;17.55;;;13.02;;
56893;SDS011;43392;50.078;13.704;2023-08-21T06:23:23;17.42;;;12.57;;
56893;SDS011;43392;50.078;13.704;2023-08-21T06:25:49;16.27;;;12.93;;
56893;SDS011;43392;50.078;13.704;2023-08-21T06:28:16;15.80;;;12.63;;
56893;SDS011;43392;50.078;13.704;2023-08-21T06:30:43;17.50;;;12.38;;
56893;SDS011;43392;50.078;13.704;2023-08-21T06:33:11;17.40;;;12.02;;
56893;SDS011;43392;50.078;13.704;2023-08-21T06:35:38;15.65;;;11.88;;
56893;SDS011;43392;50.078;13.704;2023-08-21T06:38:05;14.38;;;11.52;;
56893;SDS011;43392;50.078;13.704;2023-08-21T06:40:31;14.57;;;11.10;;
56893;SDS011;43392;50.078;13.704;2023-08-21T06:42:58;18.33;;;12.45;;
56893;SDS011;43392;50.078;13.704;2023-08-21T06:45:25;14.98;;;11.38;;
56893;SDS011;43392;50.078;13.704;2023-08-21T06:47:53;17.50;;;11.38;;
56893;SDS011;43392;50.078;13.704;2023-08-21T06:50:21;15.95;;;11.55;;
56893;SDS011;43392;50.078;13.704;2023-08-21T06:52:48;15.35;;;11.30;;
56893;SDS011;43392;50.078;13.704;2023-08-21T06:55:14;15.35;;;10.95;;
56893;SDS011;43392;50.078;13.704;2023-08-21T06:57:41;17.02;;;11.82;;
56893;SDS011;43392;50.078;13.704;2023-08-21T07:00:08;15.88;;;11.02;;
56893;SDS011;43392;50.078;13.704;2023-08-21T07:02:36;15.38;;;10.63;;
56893;SDS011;43392;50.078;13.704;2023-08-21T07:05:02;16.10;;;10.68;;
56893;SDS011;43392;50.078;13.704;2023-08-21T07:07:31;13.45;;;10.23;;
56893;SDS011;43392;50.078;13.704;2023-08-21T07:09:57;17.05;;;11.35;;
56893;SDS011;43392;50.078;13.704;2023-08-21T07:12:24;14.30;;;10.50;;
56893;SDS011;43392;50.078;13.704;2023-08-21T07:14:51;14.57;;;10.20;;
56893;SDS011;43392;50.078;13.704;2023-08-21T07:17:17;13.43;;;9.95;;
56893;SDS011;43392;50.078;13.704;2023-08-21T07:19:44;16.13;;;11.43;;
56893;SDS011;43392;50.078;13.704;2023-08-21T07:22:10;15.85;;;11.40;;
56893;SDS011;43392;50.078;13.704;2023-08-21T07:24:38;17.10;;;11.30;;
56893;SDS011;43392;50.078;13.704;2023-08-21T07:27:05;43.40;;;14.45;;
56893;SDS011;43392;50.078;13.704;2023-08-21T07:29:32;17.17;;;11.85;;
56893;SDS011;43392;50.078;13.704;2023-08-21T07:31:58;17.98;;;13.75;;
56893;SDS011;43392;50.078;13.704;2023-08-21T07:34:25;17.92;;;14.05;;
56893;SDS011;43392;50.078;13.704;2023-08-21T07:36:51;19.38;;;13.00;;
56893;SDS011;43392;50.078;13.704;2023-08-21T07:39:18;19.67;;;12.93;;
56893;SDS011;43392;50.078;13.704;2023-08-21T07:41:46;25.48;;;13.98;;
56893;SDS011;43392;50.078;13.704;2023-08-21T07:44:12;17.88;;;14.00;;
56893;SDS011;43392;50.078;13.704;2023-08-21T07:46:39;21.02;;;13.35;;
56893;SDS011;43392;50.078;13.704;2023-08-21T07:49:06;14.73;;;11.02;;
56893;SDS011;43392;50.078;13.704;2023-08-21T07:51:32;27.33;;;13.05;;
56893;SDS011;43392;50.078;13.704;2023-08-21T07:53:59;18.25;;;13.75;;
56893;SDS011;43392;50.078;13.704;2023-08-21T07:56:25;18.60;;;14.02;;
56893;SDS011;43392;50.078;13.704;2023-08-21T07:58:53;18.75;;;15.48;;
56893;SDS011;43392;50.078;13.704;2023-08-21T08:01:20;18.05;;;14.38;;
56893;SDS011;43392;50.078;13.704;2023-08-21T08:03:47;24.60;;;14.73;;
56893;SDS011;43392;50.078;13.704;2023-08-21T08:06:14;17.48;;;13.73;;
56893;SDS011;43392;50.078;13.704;2023-08-21T08:08:41;15.02;;;10.88;;
56893;SDS011;43392;50.078;13.704;2023-08-21T08:11:07;15.43;;;11.40;;
56893;SDS011;43392;50.078;13.704;2023-08-21T08:13:34;17.33;;;12.30;;
56893;SDS011;43392;50.078;13.704;2023-08-21T08:16:02;15.52;;;11.90;;
56893;SDS011;43392;50.078;13.704;2023-08-21T08:18:28;14.02;;;10.20;;
56893;SDS011;43392;50.078;13.704;2023-08-21T08:20:55;13.98;;;10.02;;
56893;SDS011;43392;50.078;13.704;2023-08-21T08:23:22;13.35;;;9.27;;
56893;SDS011;43392;50.078;13.704;2023-08-21T08:25:48;14.27;;;9.80;;
56893;SDS011;43392;50.078;13.704;2023-08-21T08:28:15;11.57;;;8.95;;
56893;SDS011;43392;50.078;13.704;2023-08-21T08:30:41;12.93;;;9.05;;
56893;SDS011;43392;50.078;13.704;2023-08-21T08:33:09;16.73;;;9.73;;
56893;SDS011;43392;50.078;13.704;2023-08-21T08:35:36;12.90;;;9.75;;
56893;SDS011;43392;50.078;13.704;2023-08-21T08:38:03;13.23;;;10.13;;
56893;SDS011;43392;50.078;13.704;2023-08-21T08:40:29;29.45;;;11.25;;
56893;SDS011;43392;50.078;13.704;2023-08-21T08:42:57;13.45;;;9.50;;
56893;SDS011;43392;50.078;13.704;2023-08-21T08:45:28;14.20;;;9.40;;
56893;SDS011;43392;50.078;13.704;2023-08-21T08:47:57;12.40;;;8.63;;
56893;SDS011;43392;50.078;13.704;2023-08-21T08:50:26;12.18;;;8.43;;
56893;SDS011;43392;50.078;13.704;2023-08-21T08:52:55;14.68;;;9.07;;
56893;SDS011;43392;50.078;13.704;2023-08-21T08:55:23;12.70;;;8.52;;
56893;SDS011;43392;50.078;13.704;2023-08-21T08:57:50;13.85;;;8.55;;
56893;SDS011;43392;50.078;13.704;2023-08-21T09:00:17;15.48;;;9.15;;
56893;SDS011;43392;50.078;13.704;2023-08-21T09:02:44;13.25;;;9.10;;
56893;SDS011;43392;50.078;13.704;2023-08-21T09:05:11;16.67;;;9.07;;
56893;SDS011;43392;50.078;13.704;2023-08-21T09:07:39;22.65;;;9.27;;
56893;SDS011;43392;50.078;13.704;2023-08-21T09:10:11;14.20;;;9.75;;
56893;SDS011;43392;50.078;13.704;2023-08-21T09:12:40;14.57;;;9.85;;
56893;SDS011;43392;50.078;13.704;2023-08-21T09:15:06;16.00;;;10.85;;
56893;SDS011;43392;50.078;13.704;2023-08-21T09:17:34;14.95;;;9.98;;
56893;SDS011;43392;50.078;13.704;2023-08-21T09:20:03;15.20;;;10.05;;
56893;SDS011;43392;50.078;13.704;2023-08-21T09:22:30;14.10;;;9.75;;
56893;SDS011;43392;50.078;13.704;2023-08-21T09:25:02;13.88;;;9.43;;
56893;SDS011;43392;50.078;13.704;2023-08-21T09:27:31;52.30;;;11.88;;
56893;SDS011;43392;50.078;13.704;2023-08-21T09:29:58;14.18;;;10.05;;
56893;SDS011;43392;50.078;13.704;2023-08-21T09:32:25;11.85;;;9.10;;
56893;SDS011;43392;50.078;13.704;2023-08-21T09:34:52;14.05;;;9.48;;
56893;SDS011;43392;50.078;13.704;2023-08-21T09:37:19;14.52;;;9.30;;
56893;SDS011;43392;50.078;13.704;2023-08-21T09:39:45;13.43;;;9.20;;
56893;SDS011;43392;50.078;13.704;2023-08-21T09:42:13;13.20;;;9.00;;
56893;SDS011;43392;50.078;13.704;2023-08-21T09:44:41;13.38;;;9.07;;
56893;SDS011;43392;50.078;13.704;2023-08-21T09:47:08;12.27;;;8.43;;
56893;SDS011;43392;50.078;13.704;2023-08-21T09:49:36;12.70;;;9.43;;
56893;SDS011;43392;50.078;13.704;2023-08-21T09:52:04;11.93;;;8.88;;
56893;SDS011;43392;50.078;13.704;2023-08-21T09:54:31;12.50;;;8.55;;
56893;SDS011;43392;50.078;13.704;2023-08-21T09:57:00;16.75;;;9.77;;
56893;SDS011;43392;50.078;13.704;2023-08-21T09:59:30;11.83;;;8.40;;
56893;SDS011;43392;50.078;13.704;2023-08-21T10:01:58;13.18;;;8.65;;
56893;SDS011;43392;50.078;13.704;2023-08-21T10:04:26;10.75;;;8.27;;
56893;SDS011;43392;50.078;13.704;2023-08-21T10:06:55;14.32;;;8.90;;
56893;SDS011;43392;50.078;13.704;2023-08-21T10:09:23;12.52;;;8.50;;
56893;SDS011;43392;50.078;13.704;2023-08-21T10:11:51;14.18;;;9.07;;
56893;SDS011;43392;50.078;13.704;2023-08-21T10:14:19;13.63;;;8.30;;
56893;SDS011;43392;50.078;13.704;2023-08-21T10:16:49;14.43;;;8.93;;
56893;SDS011;43392;50.078;13.704;2023-08-21T10:19:17;16.33;;;8.82;;
56893;SDS011;43392;50.078;13.704;2023-08-21T10:21:46;11.82;;;7.88;;
56893;SDS011;43392;50.078;13.704;2023-08-21T10:24:22;10.90;;;7.80;;
56893;SDS011;43392;50.078;13.704;2023-08-21T10:26:52;12.15;;;8.77;;
56893;SDS011;43392;50.078;13.704;2023-08-21T10:29:19;14.18;;;7.95;;
56893;SDS011;43392;50.078;13.704;2023-08-21T10:31:45;10.95;;;7.85;;
56893;SDS011;43392;50.078;13.704;2023-08-21T10:34:13;13.35;;;7.80;;
56893;SDS011;43392;50.078;13.704;2023-08-21T10:39:32;14.43;;;7.35;;
56893;SDS011;43392;50.078;13.704;2023-08-21T10:42:03;12.20;;;7.00;;
56893;SDS011;43392;50.078;13.704;2023-08-21T10:44:34;13.35;;;7.10;;
56893;SDS011;43392;50.078;13.704;2023-08-21T10:47:17;11.88;;;7.10;;
56893;SDS011;43392;50.078;13.704;2023-08-21T10:49:47;9.02;;;6.95;;
56893;SDS011;43392;50.078;13.704;2023-08-21T10:52:17;10.25;;;6.35;;
56893;SDS011;43392;50.078;13.704;2023-08-21T10:54:48;9.98;;;6.43;;
56893;SDS011;43392;50.078;13.704;2023-08-21T10:57:17;11.23;;;6.45;;
56893;SDS011;43392;50.078;13.704;2023-08-21T10:59:50;9.63;;;6.70;;
56893;SDS011;43392;50.078;13.704;2023-08-21T11:02:18;13.13;;;7.15;;
56893;SDS011;43392;50.078;13.704;2023-08-21T11:04:46;10.50;;;7.03;;
56893;SDS011;43392;50.078;13.704;2023-08-21T11:07:14;11.43;;;7.10;;
56893;SDS011;43392;50.078;13.704;2023-08-21T11:09:41;10.30;;;7.32;;
56893;SDS011;43392;50.078;13.704;2023-08-21T11:12:09;13.88;;;8.10;;
56893;SDS011;43392;50.078;13.704;2023-08-21T11:14:37;11.95;;;8.13;;
56893;SDS011;43392;50.078;13.704;2023-08-21T11:17:04;12.07;;;8.45;;
56893;SDS011;43392;50.078;13.704;2023-08-21T11:19:31;10.98;;;8.27;;
56893;SDS011;43392;50.078;13.704;2023-08-21T11:22:00;14.82;;;8.90;;
56893;SDS011;43392;50.078;13.704;2023-08-21T11:24:30;10.55;;;7.78;;
56893;SDS011;43392;50.078;13.704;2023-08-21T11:26:57;11.48;;;8.15;;
56893;SDS011;43392;50.078;13.704;2023-08-21T11:29:24;13.35;;;8.80;;
56893;SDS011;43392;50.078;13.704;2023-08-21T11:31:51;11.88;;;7.90;;
56893;SDS011;43392;50.078;13.704;2023-08-21T11:34:18;11.65;;;7.47;;
56893;SDS011;43392;50.078;13.704;2023-08-21T11:36:45;12.52;;;7.45;;
56893;SDS011;43392;50.078;13.704;2023-08-21T11:39:13;10.75;;;7.25;;
56893;SDS011;43392;50.078;13.704;2023-08-21T11:41:55;11.90;;;6.82;;
56893;SDS011;43392;50.078;13.704;2023-08-21T11:44:22;13.25;;;8.25;;
56893;SDS011;43392;50.078;13.704;2023-08-21T11:46:50;12.73;;;7.38;;
56893;SDS011;43392;50.078;13.704;2023-08-21T11:49:18;16.73;;;7.45;;
56893;SDS011;43392;50.078;13.704;2023-08-21T11:51:47;12.13;;;8.18;;
56893;SDS011;43392;50.078;13.704;2023-08-21T11:54:15;11.27;;;7.88;;
56893;SDS011;43392;50.078;13.704;2023-08-21T11:56:43;11.68;;;7.70;;
56893;SDS011;43392;50.078;13.704;2023-08-21T11:59:10;14.85;;;8.05;;
56893;SDS011;43392;50.078;13.704;2023-08-21T12:01:37;12.05;;;7.32;;
56893;SDS011;43392;50.078;13.704;2023-08-21T12:04:13;10.60;;;7.38;;
56893;SDS011;43392;50.078;13.704;2023-08-21T12:06:43;13.40;;;8.27;;
56893;SDS011;43392;50.078;13.704;2023-08-21T12:09:10;12.40;;;7.65;;
56893;SDS011;43392;50.078;13.704;2023-08-21T12:11:38;12.30;;;7.60;;
56893;SDS011;43392;50.078;13.704;2023-08-21T12:14:05;13.70;;;7.95;;
56893;SDS011;43392;50.078;13.704;2023-08-21T12:16:32;11.45;;;7.25;;
56893;SDS011;43392;50.078;13.704;2023-08-21T12:18:59;13.52;;;6.35;;
56893;SDS011;43392;50.078;13.704;2023-08-21T12:21:28;10.68;;;5.60;;
56893;SDS011;43392;50.078;13.704;2023-08-21T12:23:55;7.75;;;5.32;;
56893;SDS011;43392;50.078;13.704;2023-08-21T12:26:22;9.55;;;6.32;;
56893;SDS011;43392;50.078;13.704;2023-08-21T12:28:50;10.38;;;5.97;;
56893;SDS011;43392;50.078;13.704;2023-08-21T12:31:17;9.85;;;5.68;;
56893;SDS011;43392;50.078;13.704;2023-08-21T12:33:43;8.73;;;5.78;;
56893;SDS011;43392;50.078;13.704;2023-08-21T12:36:10;9.57;;;6.03;;
56893;SDS011;43392;50.078;13.704;2023-08-21T12:38:37;12.63;;;6.50;;
56893;SDS011;43392;50.078;13.704;2023-08-21T12:41:03;9.23;;;6.60;;
56893;SDS011;43392;50.078;13.704;2023-08-21T12:43:30;10.00;;;5.63;;
56893;SDS011;43392;50.078;13.704;2023-08-21T12:45:58;9.35;;;5.47;;
56893;SDS011;43392;50.078;13.704;2023-08-21T12:48:25;9.50;;;5.78;;
56893;SDS011;43392;50.078;13.704;2023-08-21T12:50:52;8.18;;;5.47;;
56893;SDS011;43392;50.078;13.704;2023-08-21T12:53:18;11.80;;;6.00;;
56893;SDS011;43392;50.078;13.704;2023-08-21T12:55:45;8.20;;;5.57;;
56893;SDS011;43392;50.078;13.704;2023-08-21T12:58:11;11.20;;;5.50;;
56893;SDS011;43392;50.078;13.704;2023-08-21T13:00:38;8.95;;;5.32;;
56893;SDS011;43392;50.078;13.704;2023-08-21T13:03:06;8.98;;;5.20;;
56893;SDS011;43392;50.078;13.704;2023-08-21T13:05:34;12.80;;;6.05;;
56893;SDS011;43392;50.078;13.704;2023-08-21T13:08:00;9.38;;;5.18;;
56893;SDS011;43392;50.078;13.704;2023-08-21T13:10:27;8.25;;;5.50;;
56893;SDS011;43392;50.078;13.704;2023-08-21T13:12:54;11.02;;;5.88;;
56893;SDS011;43392;50.078;13.704;2023-08-21T13:15:20;9.98;;;5.30;;
56893;SDS011;43392;50.078;13.704;2023-08-21T13:17:47;8.52;;;5.25;;
56893;SDS011;43392;50.078;13.704;2023-08-21T13:20:15;9.88;;;5.55;;
56893;SDS011;43392;50.078;13.704;2023-08-21T13:22:45;10.68;;;5.60;;
56893;SDS011;43392;50.078;13.704;2023-08-21T13:25:13;9.68;;;6.03;;
56893;SDS011;43392;50.078;13.704;2023-08-21T13:27:40;7.85;;;5.38;;
56893;SDS011;43392;50.078;13.704;2023-08-21T13:30:07;8.10;;;5.50;;
56893;SDS011;43392;50.078;13.704;2023-08-21T13:32:35;8.50;;;5.28;;
56893;SDS011;43392;50.078;13.704;2023-08-21T13:35:01;9.85;;;5.63;;
56893;SDS011;43392;50.078;13.704;2023-08-21T13:37:33;9.07;;;5.63;;
56893;SDS011;43392;50.078;13.704;2023-08-21T13:40:00;9.68;;;5.32;;
56893;SDS011;43392;50.078;13.704;2023-08-21T13:42:34;10.40;;;5.90;;
56893;SDS011;43392;50.078;13.704;2023-08-21T13:45:03;8.18;;;5.88;;
56893;SDS011;43392;50.078;13.704;2023-08-21T13:47:30;8.43;;;6.00;;
56893;SDS011;43392;50.078;13.704;2023-08-21T13:49:56;11.82;;;6.53;;
56893;SDS011;43392;50.078;13.704;2023-08-21T13:52:24;13.23;;;7.13;;
56893;SDS011;43392;50.078;13.704;2023-08-21T13:54:52;10.00;;;5.95;;
56893;SDS011;43392;50.078;13.704;2023-08-21T13:57:18;11.07;;;5.97;;
56893;SDS011;43392;50.078;13.704;2023-08-21T13:59:45;7.93;;;5.60;;
56893;SDS011;43392;50.078;13.704;2023-08-21T14:02:11;10.80;;;6.25;;
56893;SDS011;43392;50.078;13.704;2023-08-21T14:04:38;10.52;;;5.95;;
56893;SDS011;43392;50.078;13.704;2023-08-21T14:07:05;8.75;;;5.72;;
56893;SDS011;43392;50.078;13.704;2023-08-21T14:09:31;10.23;;;5.70;;
56893;SDS011;43392;50.078;13.704;2023-08-21T14:11:59;11.60;;;6.80;;
56893;SDS011;43392;50.078;13.704;2023-08-21T14:14:26;8.77;;;6.13;;
56893;SDS011;43392;50.078;13.704;2023-08-21T14:16:52;10.38;;;6.20;;
56893;SDS011;43392;50.078;13.704;2023-08-21T14:19:19;10.43;;;6.78;;